Westchester, Florida
Current Conditions -  °F | °C
As of 4:53 AM on Sunday 26 Oct 2014 (Local Time) from KMIA Reporting Station
Few Clouds Few Clouds  
Wind Chill: 70°   Ceiling: Unl
Heat Index: 70°   Visibility: 10mi
Dew Point: 64°   Wind: 6mph
Humidity: 81%   Direction: 320°NW
Pressure: 29.9"   Gusts: NA
Location:  25.7365°N, 80.3606°W
Report Text: KMIA 260853Z 32005KT 10SM FEW040 21/18 A2990 RMK AO2 SLP126 T02110178 56009
Loading
Personal Weather Stations






























Interactive Weather Map
Tropical Storm Tracking
New forecast layout! Learn more

10-Day Weather Forecast

Advertisements
Track Severe Weather on mobile